Flugplatz Nardt

Für EDAT sind keine METAR/TAF Berichte vorhanden.
Es werden die Flugwettermeldungen vom Flugplatz Dresden in 46 km Entfernung angezeigt.

Bericht für EDDC

vom 14.11. um 09:50 UTC

Wind 10 kt aus 140°

Sichtweite 10 km oder mehr

gute Sicht, keine Wolken < 5000 ft, keine CB, keine Wettererscheinungen (CAVOK)

Temperatur 6.0°C

Taupunkt 2.0°C

Luftfeuchtigkeit 75%

Luftdruck 1009 hPa

keine wesentliche Wetteränderung innerhalb den nächsten 2 Stunden zu erwarten

EDDC 140950Z 14010KT 120V180 CAVOK 06/02 Q1009 NOSIG

Prognose für EDDC

vom 14.11. um 00:00 UTC

Zwischen 00:00 UTC und 00:00 UTC

Wind 10 kt aus 140°

Sichtweite 10 km oder mehr

keine signifikanten Wettererscheinungen

keine Wolken


Am 15.11. zwischen 00:00 UTC und 00:00 UTC zeitweise

Wind 15 kt aus 110° in Böen 25 kt

TAF EDDC 140500Z 1406/1506 14010KT CAVOK TEMPO 1500/1506 11015G25KT
Impressum